Latest Weather Observations for Kurnell

IDN60901

Issued at 2:32 pm EST Friday 17 September 2021 (issued every 10 minutes, with the page automatically refreshed every 10 minutes)

About weather observations | Map of Sydney area stations | Latest observations for Sydney area | Other Formats
Station Details ID: 066043 Name: KURNELL AWS Lat: -34.00 Lon: 151.21 Height: 4.0 m
Data from the previous 72 hours. | See also: Recent months at Kurnell
Date/Time
EST
Temp
°C
App
Temp
°C
Dew
Point
°C
Rel
Hum
%
Delta-T
°C
Wind Press
QNH
hPa
Press
MSL
hPa
Rain since
9am
mm
Dir  Spd
km/h
Gust
km/h
Spd
kts
Gust
kts
17/02:30pm - - - - - NE 39 46 21 25 - - -
17/02:00pm - - - - - NE 39 46 21 25 - - -
17/01:30pm - - - - - NE 35 41 19 22 - - -
17/01:00pm - - - - - NE 35 39 19 21 - - -
17/12:30pm - - - - - NE 35 41 19 22 - - -
17/12:00pm - - - - - NE 33 37 18 20 - - -
17/11:30am - - - - - NE 32 33 17 18 - - -
17/11:00am - - - - - NE 22 28 12 15 - - -
17/10:30am - - - - - NNE 17 24 9 13 - - -
17/10:00am - - - - - N 15 19 8 10 - - -
17/09:30am - - - - - NW 15 17 8 9 - - -
17/09:00am - - - - - NNW 11 13 6 7 - - -
17/08:30am - - - - - NNW 11 13 6 7 - - -
17/08:00am - - - - - NNW 13 15 7 8 - - -
17/07:30am - - - - - NNW 13 17 7 9 - - -
17/07:00am - - - - - NNW 15 19 8 10 - - -
17/06:30am - - - - - NNW 15 17 8 9 - - -
17/06:00am - - - - - NNW 13 15 7 8 - - -
17/05:30am - - - - - NNW 11 13 6 7 - - -
17/05:00am - - - - - NW 13 15 7 8 - - -
17/04:30am - - - - - NW 13 13 7 7 - - -
17/04:00am - - - - - NW 13 15 7 8 - - -
17/03:30am - - - - - NW 11 13 6 7 - - -
17/03:00am - - - - - NNW 11 13 6 7 - - -
17/02:30am - - - - - WNW 13 13 7 7 - - -
17/02:00am - - - - - W 11 13 6 7 - - -
17/01:30am - - - - - W 7 9 4 5 - - -
17/01:00am - - - - - W 13 15 7 8 - - -
17/12:30am - - - - - W 13 15 7 8 - - -
17/12:00am - - - - - W 15 17 8 9 - - -
 
Date/Time
EST
Temp
°C
App
Temp
°C
Dew
Point
°C
Rel
Hum
%
Delta-T
°C
Wind Press
QNH
hPa
Press
MSL
hPa
Rain since
9am
mm
Dir  Spd
km/h
Gust
km/h
Spd
kts
Gust
kts
16/11:30pm - - - - - W 13 15 7 8 - - -
16/11:00pm - - - - - W 11 13 6 7 - - -
16/10:30pm - - - - - WSW 9 11 5 6 - - -
16/10:00pm - - - - - SE 6 7 3 4 - - -
16/09:30pm - - - - - CALM 0 0 0 0 - - -
16/09:00pm - - - - - CALM 0 0 0 0 - - -
16/08:30pm - - - - - CALM 0 2 0 1 - - -
16/08:00pm - - - - - E 6 9 3 5 - - -
16/07:30pm - - - - - E 9 11 5 6 - - -
16/07:00pm - - - - - ESE 13 17 7 9 - - -
16/06:30pm - - - - - ESE 13 17 7 9 - - -
16/06:00pm - - - - - ESE 11 15 6 8 - - -
16/05:30pm - - - - - ESE 13 17 7 9 - - -
16/05:00pm - - - - - SE 15 20 8 11 - - -
16/04:30pm - - - - - SSE 17 22 9 12 - - -
16/04:00pm - - - - - SSE 17 26 9 14 - - -
16/03:30pm - - - - - SE 20 26 11 14 - - -
16/03:00pm - - - - - ESE 19 24 10 13 - - -
16/02:30pm - - - - - SE 22 30 12 16 - - -
16/02:00pm - - - - - SSE 22 33 12 18 - - -
16/01:30pm - - - - - SSE 19 26 10 14 - - -
16/01:00pm - - - - - SSE 24 30 13 16 - - -
16/12:30pm - - - - - S 26 33 14 18 - - -
16/12:00pm - - - - - SSW 32 39 17 21 - - -
16/11:30am - - - - - S 28 37 15 20 - - -
16/11:00am - - - - - SSW 32 37 17 20 - - -
16/10:30am - - - - - SSW 30 39 16 21 - - -
16/10:00am - - - - - SSW 32 46 17 25 - - -
16/09:30am - - - - - SSW 32 41 17 22 - - -
16/09:00am - - - - - SSW 33 43 18 23 - - -
16/08:30am - - - - - SSW 28 41 15 22 - - -
16/08:00am - - - - - SSW 32 41 17 22 - - -
16/07:30am - - - - - SSW 28 35 15 19 - - -
16/07:00am - - - - - SSW 28 37 15 20 - - -
16/06:30am - - - - - SSW 24 32 13 17 - - -
16/06:00am - - - - - SW 17 24 9 13 - - -
16/05:30am - - - - - SSW 26 35 14 19 - - -
16/05:11am - - - - - SW 19 37 10 20 - - -
16/05:00am - - - - - WSW 11 15 6 8 - - -
16/04:30am - - - - - WSW 11 15 6 8 - - -
16/04:00am - - - - - W 17 22 9 12 - - -
16/03:30am - - - - - W 20 22 11 12 - - -
16/03:00am - - - - - W 15 19 8 10 - - -
16/02:30am - - - - - W 17 19 9 10 - - -
16/02:00am - - - - - WNW 15 17 8 9 - - -
16/01:30am - - - - - WNW 17 19 9 10 - - -
16/01:00am - - - - - SW 17 26 9 14 - - -
16/12:30am - - - - - SW 22 32 12 17 - - -
16/12:00am - - - - - SSW 22 30 12 16 - - -
 
Date/Time
EST
Temp
°C
App
Temp
°C
Dew
Point
°C
Rel
Hum
%
Delta-T
°C
Wind Press
QNH
hPa
Press
MSL
hPa
Rain since
9am
mm
Dir  Spd
km/h
Gust
km/h
Spd
kts
Gust
kts
15/11:30pm - - - - - SSW 28 35 15 19 - - -
15/11:00pm - - - - - SSW 30 39 16 21 - - -
15/10:30pm - - - - - SSW 30 39 16 21 - - -
15/10:00pm - - - - - SSW 28 33 15 18 - - -
15/09:30pm - - - - - SW 26 32 14 17 - - -
15/09:00pm - - - - - SSW 28 37 15 20 - - -
15/08:39pm - - - - - S 30 48 16 26 - - -
15/08:30pm - - - - - S 33 48 18 26 - - -
15/08:14pm - - - - - SSW 33 52 18 28 - - -
15/08:00pm - - - - - SSW 32 44 17 24 - - -
15/07:30pm - - - - - S 33 48 18 26 - - -
15/07:00pm - - - - - S 30 44 16 24 - - -
15/06:30pm - - - - - S 32 43 17 23 - - -
15/06:00pm - - - - - S 33 46 18 25 - - -
15/05:30pm - - - - - S 32 46 17 25 - - -
15/05:00pm - - - - - SSW 35 48 19 26 - - -
15/04:30pm - - - - - S 35 48 19 26 - - -
15/04:00pm - - - - - SSW 37 50 20 27 - - -
15/03:30pm - - - - - SSW 37 52 20 28 - - -
15/03:00pm - - - - - SSW 35 48 19 26 - - -
15/02:42pm - - - - - S 37 56 20 30 - - -
15/02:30pm - - - - - SSW 37 52 20 28 - - -
15/02:16pm - - - - - SSW 37 56 20 30 - - -
15/02:00pm - - - - - SSW 37 50 20 27 - - -
15/01:30pm - - - - - SSW 37 48 20 26 - - -
15/01:00pm - - - - - SSW 37 48 20 26 - - -
15/12:30pm - - - - - SSW 39 52 21 28 - - -
15/12:00pm - - - - - SSW 39 50 21 27 - - -
15/11:30am - - - - - SSW 39 50 21 27 - - -
15/11:00am - - - - - SSW 37 48 20 26 - - -
15/10:30am - - - - - SSW 37 48 20 26 - - -
15/10:00am - - - - - SW 35 48 19 26 - - -
15/09:30am - - - - - SW 33 46 18 25 - - -
15/09:00am - - - - - SW 33 41 18 22 - - -
15/08:30am - - - - - SW 32 39 17 21 - - -
15/08:00am - - - - - SW 32 43 17 23 - - -
15/07:43am - - - - - SW 30 48 16 26 - - -
15/07:40am - - - - - SW 28 39 15 21 - - -
15/07:30am - - - - - WSW 15 20 8 11 - - -
15/07:00am - - - - - W 24 30 13 16 - - -
15/06:30am - - - - - W 22 26 12 14 - - -
15/06:00am - - - - - W 20 24 11 13 - - -
15/05:30am - - - - - W 24 30 13 16 - - -
15/05:00am - - - - - W 24 28 13 15 - - -
15/04:30am - - - - - W 20 26 11 14 - - -
15/04:00am - - - - - W 19 22 10 12 - - -
15/03:30am - - - - - SW 32 43 17 23 - - -
15/03:00am - - - - - SW 24 37 13 20 - - -
15/02:30am - - - - - WSW 19 22 10 12 - - -
15/02:00am - - - - - W 20 32 11 17 - - -
15/01:30am - - - - - W 20 26 11 14 - - -
15/01:00am - - - - - WSW 19 26 10 14 - - -
15/12:30am - - - - - SW 26 37 14 20 - - -
15/12:00am - - - - - SW 32 46 17 25 - - -
 
Date/Time
EST
Temp
°C
App
Temp
°C
Dew
Point
°C
Rel
Hum
%
Delta-T
°C
Wind Press
QNH
hPa
Press
MSL
hPa
Rain since
9am
mm
Dir  Spd
km/h
Gust
km/h
Spd
kts
Gust
kts
14/11:30pm - - - - - SW 30 37 16 20 - - -
14/11:00pm - - - - - SW 24 39 13 21 - - -
14/10:52pm - - - - - SW 30 39 16 21 - - -
14/10:30pm - - - - - SSW 39 54 21 29 - - -
14/10:16pm - - - - - SSW 32 52 17 28 - - -
14/10:00pm - - - - - SW 30 37 16 20 - - -
14/09:55pm - - - - - SSW 33 46 18 25 - - -
14/09:30pm - - - - - SSW 37 50 20 27 - - -
14/09:00pm - - - - - SSW 39 54 21 29 - - -
14/08:32pm - - - - - SSW 39 63 21 34 - - -
14/08:30pm - - - - - SSW 37 52 20 28 - - -
14/08:00pm - - - - - SW 30 44 16 24 - - -
14/07:30pm - - - - - SW 35 50 19 27 - - -
14/07:02pm - - - - - SSW 37 56 20 30 - - -
14/07:00pm - - - - - SSW 39 56 21 30 - - -
14/06:30pm - - - - - SSW 41 61 22 33 - - -
14/06:00pm - - - - - SSW 37 57 20 31 - - -
14/05:57pm - - - - - SSW 37 57 20 31 - - -
14/05:30pm - - - - - SSW 43 56 23 30 - - -
14/05:02pm - - - - - SSW 43 61 23 33 - - -
14/05:00pm - - - - - SSW 43 57 23 31 - - -
14/04:30pm - - - - - SSW 37 56 20 30 - - -
14/04:03pm - - - - - SSW 39 57 21 31 - - -
14/04:00pm - - - - - SSW 37 52 20 28 - - -
14/03:31pm - - - - - SSW 41 59 22 32 - - -
14/03:30pm - - - - - SSW 43 59 23 32 - - -
14/03:26pm - - - - - SSW 41 59 22 32 - - -
14/03:20pm - - - - - SSW 41 56 22 30 - - -
14/03:01pm - - - - - SW 39 57 21 31 - - -
14/03:00pm - - - - - SW 41 57 22 31 - - -

Latest Capital City Observations: Canberra | Sydney | Melbourne | Brisbane | Adelaide | Perth | Hobart | Darwin

Other formats

Comma delimited format used in spreadsheet applications
http://www.bom.gov.au/fwo/IDN60901/IDN60901.95756.axf

JavaScript Object Notation format (JSON) in row-major order
http://www.bom.gov.au/fwo/IDN60901/IDN60901.95756.json

Data quality

Most of these data are generated automatically and are frequently updated. Quality checks on data are not normally performed. It is possible for incorrect values to appear. Refer to information at About Latest Weather Observations and please check the disclaimer before using these data.